createdAt,value
2022-09-19T00:01:54.240Z,9.20
2022-09-19T00:04:26.365Z,9.10
2022-09-19T00:06:54.530Z,9.10
2022-09-19T00:09:24.539Z,9.10
2022-09-19T00:11:52.743Z,9.10
2022-09-19T00:14:24.555Z,9.00
2022-09-19T00:16:58.995Z,9.00
2022-09-19T00:19:26.994Z,9.00
2022-09-19T00:22:01.728Z,9.00
2022-09-19T00:24:47.332Z,9.00
2022-09-19T00:27:20.587Z,9.00
2022-09-19T00:29:50.163Z,9.00
2022-09-19T00:32:17.746Z,8.90
2022-09-19T00:34:48.812Z,8.90
2022-09-19T00:37:19.754Z,8.90
2022-09-19T00:39:48.915Z,8.80
2022-09-19T00:42:18.722Z,8.70
2022-09-19T00:44:46.356Z,8.60
2022-09-19T00:47:18.326Z,8.60
2022-09-19T00:49:48.674Z,8.60
2022-09-19T00:52:22.302Z,8.60
2022-09-19T00:54:51.036Z,8.60
2022-09-19T00:57:21.520Z,8.60
2022-09-19T00:59:51.829Z,8.60
2022-09-19T01:02:22.157Z,8.50
2022-09-19T01:04:48.989Z,8.40
2022-09-19T01:07:25.609Z,8.40
2022-09-19T01:10:29.146Z,8.40
2022-09-19T01:13:11.369Z,8.40
2022-09-19T01:15:54.578Z,8.50
2022-09-19T01:19:06.255Z,8.50
2022-09-19T01:22:31.414Z,8.60
2022-09-19T01:24:59.510Z,8.60
2022-09-19T01:27:45.518Z,8.60
2022-09-19T01:30:15.016Z,8.70
2022-09-19T01:32:53.156Z,8.60
2022-09-19T01:35:31.451Z,8.60
2022-09-19T01:38:13.851Z,8.50
2022-09-19T01:40:42.998Z,8.40
2022-09-19T01:43:17.244Z,8.30
2022-09-19T01:45:45.842Z,8.20
2022-09-19T01:48:25.764Z,8.20
2022-09-19T01:50:52.389Z,8.20
2022-09-19T01:53:50.960Z,8.20
2022-09-19T01:56:28.145Z,8.20
2022-09-19T01:59:03.360Z,8.10
2022-09-19T02:01:51.304Z,8.10
2022-09-19T02:04:38.680Z,8.00
2022-09-19T02:07:14.253Z,7.90
2022-09-19T02:09:49.612Z,7.90
2022-09-19T02:12:23.968Z,7.80
2022-09-19T02:14:56.093Z,7.70
2022-09-19T02:17:27.343Z,7.70
2022-09-19T02:20:25.845Z,7.60
2022-09-19T02:23:00.431Z,7.60
2022-09-19T02:25:33.161Z,7.60
2022-09-19T02:28:07.816Z,7.50
2022-09-19T02:30:35.005Z,7.50
2022-09-19T02:33:08.017Z,7.40
2022-09-19T02:36:06.597Z,7.40
2022-09-19T02:38:37.052Z,7.40
2022-09-19T02:41:22.551Z,7.50
2022-09-19T02:43:52.786Z,7.50
2022-09-19T02:46:31.922Z,7.50
2022-09-19T02:49:06.842Z,7.50
2022-09-19T02:51:41.901Z,7.50
2022-09-19T02:54:22.292Z,7.60
2022-09-19T02:56:54.355Z,7.60
2022-09-19T02:59:23.999Z,7.60
2022-09-19T03:02:00.255Z,7.50
2022-09-19T03:04:40.277Z,7.60
2022-09-19T03:07:28.592Z,7.50
2022-09-19T03:10:20.078Z,7.50
2022-09-19T03:13:02.040Z,7.50
2022-09-19T03:15:39.482Z,7.60
2022-09-19T03:18:15.456Z,7.60
2022-09-19T03:20:55.925Z,7.60
2022-09-19T03:23:50.209Z,7.60
2022-09-19T03:26:29.607Z,7.70
2022-09-19T03:28:56.605Z,7.80
2022-09-19T03:31:24.430Z,7.80
2022-09-19T03:33:55.299Z,7.80
2022-09-19T03:36:23.210Z,7.80
2022-09-19T03:38:52.634Z,7.80
2022-09-19T03:41:22.505Z,7.80
2022-09-19T03:43:50.148Z,7.80
2022-09-19T03:46:19.119Z,7.80
2022-09-19T03:48:47.492Z,7.80
2022-09-19T03:51:18.089Z,7.80
2022-09-19T03:53:45.374Z,7.80
2022-09-19T03:56:15.948Z,7.90
2022-09-19T03:58:45.851Z,7.90
2022-09-19T04:01:20.896Z,7.90
2022-09-19T04:03:49.800Z,7.90
2022-09-19T04:06:17.153Z,8.00
2022-09-19T04:08:43.870Z,8.00
2022-09-19T04:11:13.512Z,8.00
2022-09-19T04:13:40.266Z,8.00
2022-09-19T04:16:07.685Z,8.10
2022-09-19T04:18:35.261Z,8.10
2022-09-19T04:21:05.403Z,8.10
2022-09-19T04:23:34.760Z,8.10
2022-09-19T04:26:03.224Z,8.20
2022-09-19T04:28:32.141Z,8.20
2022-09-19T04:31:00.933Z,8.20
2022-09-19T04:33:29.930Z,8.20
2022-09-19T04:36:01.260Z,8.20
2022-09-19T04:38:31.654Z,8.30
2022-09-19T04:40:58.316Z,8.30
2022-09-19T04:43:28.006Z,8.20
2022-09-19T04:45:58.096Z,8.30
2022-09-19T04:48:31.330Z,8.30
2022-09-19T04:50:58.943Z,8.30
2022-09-19T04:53:31.991Z,8.40
2022-09-19T04:55:58.703Z,8.50
2022-09-19T04:58:27.856Z,8.50
2022-09-19T05:00:58.407Z,8.50
2022-09-19T05:03:26.846Z,8.60
2022-09-19T05:05:54.645Z,8.60
2022-09-19T05:08:26.941Z,8.60
2022-09-19T05:11:01.167Z,8.60
2022-09-19T05:13:30.675Z,8.70
2022-09-19T05:16:04.082Z,8.70
2022-09-19T05:18:33.146Z,8.70
2022-09-19T05:21:04.471Z,8.70
2022-09-19T05:23:34.122Z,8.70
2022-09-19T05:26:05.081Z,8.70
2022-09-19T05:28:31.951Z,8.70
2022-09-19T05:31:05.385Z,8.70
2022-09-19T05:33:33.838Z,8.70
2022-09-19T05:36:02.460Z,8.70
2022-09-19T05:38:32.991Z,8.70
2022-09-19T05:41:02.180Z,8.70
2022-09-19T05:43:29.176Z,8.80
2022-09-19T05:46:02.329Z,8.80
2022-09-19T05:48:31.086Z,8.80
2022-09-19T05:50:57.928Z,8.90
2022-09-19T05:53:42.981Z,8.90
2022-09-19T05:56:10.615Z,9.00
2022-09-19T05:58:39.890Z,9.00
2022-09-19T06:01:08.838Z,9.00
2022-09-19T06:03:36.731Z,9.10
2022-09-19T06:06:10.873Z,9.20
2022-09-19T06:08:38.004Z,9.20
2022-09-19T06:11:07.163Z,9.20
2022-09-19T06:13:54.831Z,9.30
2022-09-19T06:16:21.725Z,9.40
2022-09-19T06:18:48.748Z,9.40
2022-09-19T06:21:20.479Z,9.40
2022-09-19T06:23:51.860Z,9.50
2022-09-19T06:26:18.980Z,9.50
2022-09-19T06:28:47.471Z,9.50
2022-09-19T06:31:16.579Z,9.60
2022-09-19T06:33:45.987Z,9.60
2022-09-19T06:36:13.766Z,9.60
2022-09-19T06:38:42.082Z,9.70
2022-09-19T06:41:09.787Z,9.70
2022-09-19T06:43:36.885Z,9.80
2022-09-19T06:46:06.271Z,9.90
2022-09-19T06:48:33.281Z,9.90
2022-09-19T06:51:00.432Z,10.00
2022-09-19T06:53:29.454Z,10.10
2022-09-19T06:55:57.219Z,10.10
2022-09-19T06:58:25.627Z,10.10
2022-09-19T07:00:55.617Z,10.20
2022-09-19T07:03:22.617Z,10.20
2022-09-19T07:05:52.353Z,10.20
2022-09-19T07:08:19.264Z,10.20
2022-09-19T07:10:45.983Z,10.20
2022-09-19T07:13:17.321Z,10.10
2022-09-19T07:15:49.449Z,10.10
2022-09-19T07:18:18.833Z,10.10
2022-09-19T07:20:45.636Z,10.10
2022-09-19T07:23:21.029Z,10.10
2022-09-19T07:25:52.062Z,10.20
2022-09-19T07:28:20.248Z,10.20
2022-09-19T07:30:54.292Z,10.30
2022-09-19T07:33:23.170Z,10.30
2022-09-19T07:35:52.495Z,10.30
2022-09-19T07:38:20.902Z,10.40
2022-09-19T07:40:47.891Z,10.40
2022-09-19T07:43:16.926Z,10.40
2022-09-19T07:45:46.164Z,10.40
2022-09-19T07:48:13.626Z,10.40
2022-09-19T07:50:40.358Z,10.50
2022-09-19T07:53:11.383Z,10.50
2022-09-19T07:55:38.506Z,10.60
2022-09-19T07:58:06.572Z,10.70
2022-09-19T08:00:35.920Z,10.70
2022-09-19T08:03:10.249Z,10.70
2022-09-19T08:05:41.651Z,10.70
2022-09-19T08:08:11.097Z,11.00
2022-09-19T08:10:41.721Z,11.20
2022-09-19T08:13:14.414Z,11.40
2022-09-19T08:15:43.539Z,11.60
2022-09-19T08:18:20.110Z,11.50
2022-09-19T08:20:49.648Z,11.50
2022-09-19T08:23:19.499Z,11.30
2022-09-19T08:25:47.670Z,11.30
2022-09-19T08:28:18.409Z,11.10
2022-09-19T08:30:50.124Z,11.10
2022-09-19T08:33:20.067Z,11.10
2022-09-19T08:35:46.929Z,11.30
2022-09-19T08:38:14.810Z,11.50
2022-09-19T08:40:41.600Z,11.60
2022-09-19T08:43:40.701Z,11.70
2022-09-19T08:46:34.327Z,11.80
2022-09-19T08:49:15.277Z,11.90
2022-09-19T08:52:00.206Z,12.00
2022-09-19T08:54:37.057Z,11.90
2022-09-19T08:57:06.714Z,11.90
2022-09-19T08:59:40.802Z,12.00
2022-09-19T09:03:00.212Z,12.00
2022-09-19T09:05:57.427Z,12.00
2022-09-19T09:08:56.370Z,12.00
2022-09-19T09:11:32.378Z,11.90
2022-09-19T09:14:36.770Z,12.00
2022-09-19T09:17:22.276Z,12.10
2022-09-19T09:20:16.876Z,12.20
2022-09-19T09:22:49.478Z,12.30
2022-09-19T09:25:31.519Z,12.40
2022-09-19T09:28:29.006Z,12.50
2022-09-19T09:31:11.390Z,12.40
2022-09-19T09:33:54.004Z,12.40
2022-09-19T09:36:24.730Z,12.50
2022-09-19T09:39:06.310Z,12.50
2022-09-19T09:41:46.235Z,12.70
2022-09-19T09:44:15.167Z,12.90
2022-09-19T09:46:50.431Z,12.90
2022-09-19T09:49:25.865Z,12.90
2022-09-19T09:52:25.899Z,13.10
2022-09-19T09:55:23.200Z,13.10
2022-09-19T09:58:06.692Z,12.90
2022-09-19T10:00:55.105Z,12.70
2022-09-19T10:03:51.762Z,12.60
2022-09-19T10:06:43.880Z,12.70
2022-09-19T10:09:19.280Z,12.90
2022-09-19T10:15:01.993Z,13.00
2022-09-19T10:17:38.273Z,13.10
2022-09-19T10:20:12.204Z,13.20
2022-09-19T10:22:38.950Z,13.30
2022-09-19T10:25:14.939Z,13.40
2022-09-19T10:27:44.983Z,13.40
2022-09-19T10:30:20.648Z,13.40
2022-09-19T10:32:48.657Z,13.40
2022-09-19T10:35:35.814Z,13.40
2022-09-19T10:38:14.526Z,13.40
2022-09-19T10:40:59.723Z,13.60
2022-09-19T10:43:57.847Z,13.60
2022-09-19T10:46:41.546Z,13.70
2022-09-19T10:49:25.320Z,13.80
2022-09-19T10:51:53.743Z,13.80
2022-09-19T10:54:37.209Z,13.80
2022-09-19T10:57:07.711Z,14.00
2022-09-19T10:59:40.096Z,13.90
2022-09-19T11:02:09.895Z,13.90
2022-09-19T11:04:37.862Z,13.90
2022-09-19T11:07:18.080Z,14.10
2022-09-19T11:09:46.258Z,14.40
2022-09-19T11:12:16.455Z,14.40
2022-09-19T11:14:51.452Z,14.30
2022-09-19T11:17:40.046Z,14.10
2022-09-19T11:20:32.881Z,14.20
2022-09-19T11:23:33.276Z,14.30
2022-09-19T11:26:19.361Z,14.50
2022-09-19T11:29:05.917Z,14.70
2022-09-19T11:35:25.209Z,14.80
2022-09-19T11:37:58.257Z,14.60
2022-09-19T11:40:52.430Z,14.60
2022-09-19T11:43:45.863Z,14.70
2022-09-19T11:46:34.071Z,14.80
2022-09-19T11:49:26.815Z,14.70
2022-09-19T11:52:09.995Z,14.70
2022-09-19T11:54:45.837Z,14.70
2022-09-19T11:57:38.924Z,14.50
2022-09-19T12:00:15.056Z,14.60
2022-09-19T12:03:11.327Z,14.60
2022-09-19T12:05:44.331Z,14.60
2022-09-19T12:08:35.370Z,14.70
2022-09-19T12:11:14.915Z,14.80
2022-09-19T12:13:58.383Z,15.00
2022-09-19T12:16:41.907Z,15.00
2022-09-19T12:19:34.854Z,15.20
2022-09-19T12:22:25.267Z,15.40
2022-09-19T12:25:04.926Z,15.50
2022-09-19T12:27:47.646Z,15.40
2022-09-19T12:30:19.743Z,15.30
2022-09-19T12:33:14.061Z,15.10
2022-09-19T12:35:49.534Z,15.00
2022-09-19T12:38:17.872Z,15.50
2022-09-19T12:40:55.563Z,15.90
2022-09-19T12:43:52.338Z,15.70
2022-09-19T12:46:35.167Z,15.70
2022-09-19T12:49:19.702Z,15.70
2022-09-19T12:51:57.015Z,15.40
2022-09-19T12:54:38.990Z,15.20
2022-09-19T12:57:36.713Z,14.90
2022-09-19T13:00:08.790Z,14.80
2022-09-19T13:02:44.370Z,14.90
2022-09-19T13:05:35.191Z,15.20
2022-09-19T13:08:07.493Z,15.40
2022-09-19T13:10:40.690Z,15.50
2022-09-19T13:13:29.826Z,15.40
2022-09-19T13:16:01.061Z,15.40
2022-09-19T13:18:48.435Z,15.20
2022-09-19T13:21:37.912Z,15.10
2022-09-19T13:24:06.270Z,15.00
2022-09-19T13:26:38.372Z,15.00
2022-09-19T13:29:27.866Z,15.10
2022-09-19T13:31:56.883Z,15.00
2022-09-19T13:34:41.909Z,15.10
2022-09-19T13:37:44.572Z,15.10
2022-09-19T13:40:25.341Z,15.20
2022-09-19T13:43:19.974Z,15.40
2022-09-19T13:45:53.128Z,15.60
2022-09-19T13:48:39.045Z,15.70
2022-09-19T13:51:15.189Z,15.80
2022-09-19T13:53:45.271Z,15.70
2022-09-19T13:56:33.590Z,15.70
2022-09-19T13:59:22.180Z,15.80
2022-09-19T14:02:05.184Z,15.90
2022-09-19T14:04:58.103Z,16.10
2022-09-19T14:10:56.321Z,15.80
2022-09-19T14:13:26.123Z,15.50
2022-09-19T14:16:03.796Z,15.30
2022-09-19T14:18:50.787Z,15.30
2022-09-19T14:21:35.631Z,15.20
2022-09-19T14:24:18.968Z,15.00
2022-09-19T14:27:22.470Z,15.00
2022-09-19T14:30:16.205Z,15.20
2022-09-19T14:33:00.787Z,15.40
2022-09-19T14:35:32.761Z,15.70
2022-09-19T14:38:19.113Z,15.80
2022-09-19T14:40:56.678Z,15.70
2022-09-19T14:43:50.499Z,15.50
2022-09-19T14:46:48.034Z,15.20
2022-09-19T14:49:27.075Z,15.10
2022-09-19T14:52:12.593Z,15.10
2022-09-19T14:55:00.969Z,15.00
2022-09-19T14:57:34.063Z,14.20
2022-09-19T15:00:36.028Z,13.60
2022-09-19T15:03:11.805Z,13.40
2022-09-19T15:05:43.571Z,13.30
2022-09-19T15:08:27.942Z,13.30
2022-09-19T15:11:03.501Z,13.50
2022-09-19T15:13:32.194Z,13.50
2022-09-19T15:16:04.267Z,13.50
2022-09-19T15:18:36.340Z,13.50
2022-09-19T15:21:04.296Z,13.40
2022-09-19T15:23:33.587Z,13.40
2022-09-19T15:26:09.179Z,13.40
2022-09-19T15:28:38.988Z,13.50
2022-09-19T15:31:22.408Z,13.50
2022-09-19T15:34:02.246Z,13.50
2022-09-19T15:36:31.230Z,13.70
2022-09-19T15:39:02.489Z,13.70
2022-09-19T15:41:30.829Z,13.80
2022-09-19T15:43:59.411Z,13.80
2022-09-19T15:46:32.268Z,13.70
2022-09-19T15:49:17.149Z,13.70
2022-09-19T15:51:57.795Z,13.70
2022-09-19T15:54:28.863Z,13.80
2022-09-19T15:57:01.462Z,14.10
2022-09-19T15:59:47.091Z,14.80
2022-09-19T16:02:18.756Z,15.50
2022-09-19T16:04:46.894Z,15.00
2022-09-19T16:07:55.847Z,14.50
2022-09-19T16:10:52.479Z,14.20
2022-09-19T16:13:35.044Z,14.10
2022-09-19T16:16:07.252Z,15.20
2022-09-19T16:18:50.098Z,16.10
2022-09-19T16:21:20.707Z,15.30
2022-09-19T16:23:52.408Z,14.70
2022-09-19T16:26:21.287Z,14.40
2022-09-19T16:28:54.531Z,14.20
2022-09-19T16:31:36.554Z,14.80
2022-09-19T16:34:09.186Z,14.80
2022-09-19T16:36:45.048Z,14.40
2022-09-19T16:39:11.678Z,14.10
2022-09-19T16:41:54.901Z,13.80
2022-09-19T16:44:24.288Z,13.70
2022-09-19T16:46:58.333Z,13.50
2022-09-19T16:49:27.850Z,13.40
2022-09-19T16:51:55.627Z,13.20
2022-09-19T16:54:22.735Z,13.10
2022-09-19T16:56:51.903Z,13.10
2022-09-19T16:59:23.640Z,13.00
2022-09-19T17:01:51.120Z,12.90
2022-09-19T17:04:21.736Z,12.80
2022-09-19T17:06:51.129Z,12.60
2022-09-19T17:09:17.868Z,12.50
2022-09-19T17:11:46.673Z,12.40
2022-09-19T17:14:21.267Z,12.30
2022-09-19T17:16:51.979Z,12.20
2022-09-19T17:19:18.793Z,12.10
2022-09-19T17:21:47.193Z,12.00
2022-09-19T17:24:17.927Z,11.80
2022-09-19T17:26:46.715Z,11.80
2022-09-19T17:29:15.719Z,11.70
2022-09-19T17:31:45.088Z,11.60
2022-09-19T17:34:15.881Z,11.50
2022-09-19T17:36:42.547Z,11.50
2022-09-19T17:39:09.544Z,11.50
2022-09-19T17:41:38.454Z,11.50
2022-09-19T17:44:07.523Z,11.60
2022-09-19T17:46:34.709Z,11.50
2022-09-19T17:49:01.502Z,11.50
2022-09-19T17:51:30.847Z,11.50
2022-09-19T17:53:57.594Z,11.40
2022-09-19T17:56:26.510Z,11.40
2022-09-19T17:58:58.157Z,11.30
2022-09-19T18:01:47.010Z,11.20
2022-09-19T18:04:14.540Z,11.20
2022-09-19T18:06:44.032Z,11.20
2022-09-19T18:09:17.069Z,11.20
2022-09-19T18:11:43.833Z,11.30
2022-09-19T18:14:17.038Z,11.40
2022-09-19T18:16:46.864Z,11.40
2022-09-19T18:19:13.825Z,11.30
2022-09-19T18:21:42.836Z,11.30
2022-09-19T18:24:12.293Z,11.20
2022-09-19T18:26:39.297Z,11.20
2022-09-19T18:29:08.177Z,11.20
2022-09-19T18:31:35.783Z,11.20
2022-09-19T18:34:05.246Z,11.10
2022-09-19T18:36:35.769Z,11.00
2022-09-19T18:39:03.697Z,11.10
2022-09-19T18:41:32.778Z,11.00
2022-09-19T18:43:59.554Z,10.90
2022-09-19T18:46:28.654Z,10.80
2022-09-19T18:48:57.221Z,10.70
2022-09-19T18:51:29.472Z,10.70
2022-09-19T18:53:59.832Z,10.60
2022-09-19T18:56:29.996Z,10.50
2022-09-19T18:58:58.350Z,10.50
2022-09-19T19:01:28.204Z,10.50
2022-09-19T19:03:57.578Z,10.40
2022-09-19T19:06:25.154Z,10.30
2022-09-19T19:08:55.437Z,10.30
2022-09-19T19:11:25.384Z,10.30
2022-09-19T19:13:55.244Z,10.20
2022-09-19T19:16:24.366Z,10.30
2022-09-19T19:18:54.738Z,10.20
2022-09-19T19:21:29.412Z,10.20
2022-09-19T19:23:58.060Z,10.10
2022-09-19T19:26:28.827Z,10.00
2022-09-19T19:28:58.620Z,9.90
2022-09-19T19:31:26.052Z,9.90
2022-09-19T19:33:52.969Z,10.00
2022-09-19T19:36:23.780Z,10.00
2022-09-19T19:38:51.967Z,10.00
2022-09-19T19:41:29.081Z,10.00
2022-09-19T19:43:57.712Z,10.10
2022-09-19T19:46:28.989Z,10.10
2022-09-19T19:48:57.973Z,10.10
2022-09-19T19:51:26.894Z,10.20
2022-09-19T19:53:59.365Z,10.20
2022-09-19T19:56:35.009Z,10.30
2022-09-19T19:59:04.516Z,10.30
2022-09-19T20:01:33.302Z,10.20
2022-09-19T20:04:02.218Z,10.10
2022-09-19T20:06:33.732Z,10.00
2022-09-19T20:09:01.754Z,10.00
2022-09-19T20:11:29.543Z,9.90
2022-09-19T20:13:58.236Z,10.00
2022-09-19T20:16:27.424Z,10.00
2022-09-19T20:19:00.534Z,9.90
2022-09-19T20:21:29.549Z,9.90
2022-09-19T20:23:56.560Z,9.90
2022-09-19T20:26:28.826Z,9.90
2022-09-19T20:28:58.094Z,9.90
2022-09-19T20:31:30.927Z,9.90
2022-09-19T20:34:00.722Z,9.90
2022-09-19T20:36:29.113Z,10.00
2022-09-19T20:38:57.553Z,10.00
2022-09-19T20:41:25.545Z,10.00
2022-09-19T20:43:53.333Z,10.00
2022-09-19T20:46:23.088Z,10.00
2022-09-19T20:48:50.067Z,10.00
2022-09-19T20:51:21.253Z,10.10
2022-09-19T20:53:54.637Z,10.10
2022-09-19T20:56:28.128Z,10.10
2022-09-19T20:59:00.533Z,10.10
2022-09-19T21:01:33.994Z,10.10
2022-09-19T21:04:00.989Z,10.10
2022-09-19T21:06:28.590Z,10.10
2022-09-19T21:08:55.996Z,10.10
2022-09-19T21:11:26.546Z,10.10
2022-09-19T21:13:56.318Z,10.10
2022-09-19T21:16:26.134Z,10.10
2022-09-19T21:18:57.409Z,10.20
2022-09-19T21:21:29.269Z,10.20
2022-09-19T21:23:56.851Z,10.20
2022-09-19T21:26:29.266Z,10.10
2022-09-19T21:29:00.071Z,10.10
2022-09-19T21:31:30.792Z,10.10
2022-09-19T21:33:59.596Z,10.20
2022-09-19T21:36:27.276Z,10.30
2022-09-19T21:38:55.304Z,10.30
2022-09-19T21:41:21.998Z,10.30
2022-09-19T21:43:52.668Z,10.30
2022-09-19T21:46:22.319Z,10.30
2022-09-19T21:48:49.186Z,10.20
2022-09-19T21:51:24.102Z,10.20
2022-09-19T21:53:56.491Z,10.20
2022-09-19T21:56:29.693Z,10.20
2022-09-19T21:58:56.837Z,10.20
2022-09-19T22:01:24.609Z,10.20
2022-09-19T22:03:54.465Z,10.20
2022-09-19T22:06:23.156Z,10.20
2022-09-19T22:08:55.116Z,10.30
2022-09-19T22:11:26.604Z,10.30
2022-09-19T22:13:56.389Z,10.40
2022-09-19T22:16:28.936Z,10.30
2022-09-19T22:18:55.997Z,10.20
2022-09-19T22:21:25.506Z,10.20
2022-09-19T22:23:54.056Z,10.20
2022-09-19T22:26:26.429Z,10.20
2022-09-19T22:28:54.331Z,10.20
2022-09-19T22:31:22.557Z,10.20
2022-09-19T22:33:55.092Z,10.20
2022-09-19T22:36:31.267Z,10.20
2022-09-19T22:39:00.136Z,10.30
2022-09-19T22:41:27.970Z,10.20
2022-09-19T22:43:56.826Z,10.20
2022-09-19T22:46:28.957Z,10.10
2022-09-19T22:48:56.165Z,10.10
2022-09-19T22:51:25.924Z,10.10
2022-09-19T22:53:55.046Z,10.10
2022-09-19T22:56:24.418Z,10.10
2022-09-19T22:58:51.540Z,10.10
2022-09-19T23:01:24.541Z,10.10
2022-09-19T23:03:56.242Z,10.10
2022-09-19T23:06:32.101Z,10.10
2022-09-19T23:09:01.380Z,10.10
2022-09-19T23:11:30.215Z,10.10
2022-09-19T23:14:04.407Z,10.10
2022-09-19T23:16:33.596Z,10.10
2022-09-19T23:19:04.411Z,10.10
2022-09-19T23:21:36.424Z,10.20
2022-09-19T23:24:03.921Z,10.10
2022-09-19T23:26:31.498Z,10.10
2022-09-19T23:28:58.872Z,10.10
2022-09-19T23:31:30.325Z,10.00
2022-09-19T23:33:58.343Z,10.10
2022-09-19T23:36:26.470Z,10.10
2022-09-19T23:38:55.122Z,10.10
2022-09-19T23:41:26.276Z,10.10
2022-09-19T23:43:53.526Z,10.10
2022-09-19T23:46:24.239Z,10.00
2022-09-19T23:48:51.459Z,10.10
2022-09-19T23:51:20.285Z,10.10
2022-09-19T23:53:47.038Z,10.10
2022-09-19T23:56:13.819Z,10.10
2022-09-19T23:58:40.514Z,10.10
